createdAt,value
2022-11-02T00:00:41.087Z,100.00
2022-11-02T00:03:08.113Z,100.00
2022-11-02T00:05:35.159Z,100.00
2022-11-02T00:08:01.688Z,100.00
2022-11-02T00:10:29.848Z,100.00
2022-11-02T00:12:56.603Z,100.00
2022-11-02T00:15:25.338Z,100.00
2022-11-02T00:17:55.952Z,100.00
2022-11-02T00:20:22.907Z,100.00
2022-11-02T00:22:53.060Z,100.00
2022-11-02T00:25:23.211Z,100.00
2022-11-02T00:27:49.672Z,100.00
2022-11-02T00:30:16.226Z,100.00
2022-11-02T00:32:42.646Z,100.00
2022-11-02T00:35:10.160Z,100.00
2022-11-02T00:37:36.698Z,100.00
2022-11-02T00:40:04.104Z,100.00
2022-11-02T00:42:30.500Z,100.00
2022-11-02T00:44:56.885Z,100.00
2022-11-02T00:47:23.327Z,100.00
2022-11-02T00:49:49.734Z,100.00
2022-11-02T00:52:16.153Z,100.00
2022-11-02T00:54:42.666Z,100.00
2022-11-02T00:57:09.462Z,100.00
2022-11-02T00:59:35.875Z,100.00
2022-11-02T01:02:02.332Z,100.00
2022-11-02T01:04:28.824Z,100.00
2022-11-02T01:06:55.461Z,100.00
2022-11-02T01:09:21.894Z,100.00
2022-11-02T01:11:48.374Z,100.00
2022-11-02T01:14:14.803Z,100.00
2022-11-02T01:16:41.588Z,100.00
2022-11-02T01:19:08.262Z,100.00
2022-11-02T01:21:34.711Z,100.00
2022-11-02T01:24:01.150Z,100.00
2022-11-02T01:26:27.697Z,100.00
2022-11-02T01:28:54.903Z,100.00
2022-11-02T01:31:21.974Z,100.00
2022-11-02T01:33:48.519Z,100.00
2022-11-02T01:36:19.946Z,100.00
2022-11-02T01:38:46.903Z,100.00
2022-11-02T01:41:13.856Z,100.00
2022-11-02T01:43:45.960Z,100.00
2022-11-02T01:46:12.552Z,100.00
2022-11-02T01:48:47.658Z,100.00
2022-11-02T01:51:20.028Z,100.00
2022-11-02T01:53:49.581Z,100.00
2022-11-02T01:56:20.192Z,100.00
2022-11-02T01:58:54.629Z,100.00
2022-11-02T02:01:21.299Z,100.00
2022-11-02T02:03:48.951Z,100.00
2022-11-02T02:06:15.944Z,100.00
2022-11-02T02:08:46.438Z,100.00
2022-11-02T02:11:30.563Z,100.00
2022-11-02T02:14:00.992Z,100.00
2022-11-02T02:16:35.793Z,100.00
2022-11-02T02:19:15.730Z,100.00
2022-11-02T02:21:57.398Z,100.00
2022-11-02T02:24:45.330Z,100.00
2022-11-02T02:27:18.810Z,100.00
2022-11-02T02:29:53.847Z,100.00
2022-11-02T02:32:31.006Z,100.00
2022-11-02T02:35:08.483Z,100.00
2022-11-02T02:37:43.307Z,100.00
2022-11-02T02:40:22.513Z,100.00
2022-11-02T02:43:03.646Z,100.00
2022-11-02T02:45:37.408Z,100.00
2022-11-02T02:48:11.634Z,100.00
2022-11-02T02:50:46.023Z,99.81
2022-11-02T02:53:14.787Z,100.00
2022-11-02T02:55:45.178Z,100.00
2022-11-02T02:58:23.044Z,100.00
2022-11-02T03:00:49.817Z,100.00
2022-11-02T03:03:20.080Z,100.00
2022-11-02T03:06:03.006Z,100.00
2022-11-02T03:08:30.795Z,100.00
2022-11-02T03:11:10.166Z,100.00
2022-11-02T03:14:06.432Z,100.00
2022-11-02T03:19:44.281Z,100.00
2022-11-02T03:22:35.641Z,100.00
2022-11-02T03:25:13.229Z,100.00
2022-11-02T03:28:20.785Z,100.00
2022-11-02T03:30:57.694Z,100.00
2022-11-02T03:33:34.498Z,100.00
2022-11-02T03:36:15.949Z,100.00
2022-11-02T03:39:10.235Z,100.00
2022-11-02T03:41:39.430Z,100.00
2022-11-02T03:44:17.252Z,100.00
2022-11-02T03:46:44.690Z,100.00
2022-11-02T03:49:15.466Z,100.00
2022-11-02T03:51:45.162Z,100.00
2022-11-02T03:54:36.046Z,100.00
2022-11-02T03:59:35.812Z,100.00
2022-11-02T04:02:03.289Z,100.00
2022-11-02T04:04:29.823Z,100.00
2022-11-02T04:06:56.757Z,100.00
2022-11-02T04:09:23.194Z,100.00
2022-11-02T04:12:08.066Z,100.00
2022-11-02T04:14:41.001Z,100.00
2022-11-02T04:20:00.490Z,100.00
2022-11-02T04:22:55.911Z,100.00
2022-11-02T04:25:22.970Z,100.00
2022-11-02T04:27:53.448Z,100.00
2022-11-02T04:30:22.386Z,100.00
2022-11-02T04:33:09.341Z,100.00
2022-11-02T04:35:37.459Z,100.00
2022-11-02T04:38:22.518Z,100.00
2022-11-02T04:40:51.018Z,100.00
2022-11-02T04:43:17.393Z,100.00
2022-11-02T04:45:43.775Z,100.00
2022-11-02T04:48:10.295Z,100.00
2022-11-02T04:50:37.247Z,100.00
2022-11-02T04:53:07.040Z,100.00
2022-11-02T04:55:34.579Z,100.00
2022-11-02T04:58:01.191Z,100.00
2022-11-02T05:00:27.767Z,100.00
2022-11-02T05:02:54.236Z,100.00
2022-11-02T05:05:20.801Z,100.00
2022-11-02T05:07:47.203Z,100.00
2022-11-02T05:10:13.669Z,100.00
2022-11-02T05:12:40.083Z,100.00
2022-11-02T05:15:06.835Z,100.00
2022-11-02T05:17:33.443Z,100.00
2022-11-02T05:19:59.873Z,100.00
2022-11-02T05:22:26.300Z,100.00
2022-11-02T05:24:52.694Z,100.00
2022-11-02T05:27:19.109Z,100.00
2022-11-02T05:29:45.520Z,100.00
2022-11-02T05:32:11.959Z,100.00
2022-11-02T05:34:38.352Z,100.00
2022-11-02T05:37:04.752Z,100.00
2022-11-02T05:39:31.242Z,100.00
2022-11-02T05:41:57.637Z,100.00
2022-11-02T05:44:24.042Z,100.00
2022-11-02T05:46:50.439Z,100.00
2022-11-02T05:49:16.825Z,100.00
2022-11-02T05:51:44.061Z,100.00
2022-11-02T05:54:10.499Z,100.00
2022-11-02T05:56:36.886Z,100.00
2022-11-02T05:59:03.313Z,100.00
2022-11-02T06:01:29.749Z,100.00
2022-11-02T06:03:56.598Z,100.00
2022-11-02T06:06:23.038Z,100.00
2022-11-02T06:08:49.774Z,100.00
2022-11-02T06:11:16.634Z,100.00
2022-11-02T06:13:43.125Z,100.00
2022-11-02T06:16:12.142Z,100.00
2022-11-02T06:18:39.225Z,100.00
2022-11-02T06:21:06.097Z,100.00
2022-11-02T06:23:32.982Z,100.00
2022-11-02T06:26:00.529Z,100.00
2022-11-02T06:28:27.786Z,100.00
2022-11-02T06:30:54.340Z,100.00
2022-11-02T06:33:21.382Z,100.00
2022-11-02T06:35:49.773Z,100.00
2022-11-02T06:38:16.972Z,100.00
2022-11-02T06:40:44.137Z,100.00
2022-11-02T06:43:16.511Z,100.00
2022-11-02T06:45:43.690Z,100.00
2022-11-02T06:48:10.084Z,100.00
2022-11-02T06:50:36.470Z,100.00
2022-11-02T06:53:03.802Z,100.00
2022-11-02T06:55:30.546Z,100.00
2022-11-02T06:57:56.980Z,100.00
2022-11-02T07:00:24.119Z,100.00
2022-11-02T07:03:09.454Z,100.00
2022-11-02T07:05:36.878Z,100.00
2022-11-02T07:08:04.809Z,100.00
2022-11-02T07:10:31.998Z,100.00
2022-11-02T07:12:58.610Z,100.00
2022-11-02T07:15:26.347Z,100.00
2022-11-02T07:17:53.186Z,100.00
2022-11-02T07:20:20.036Z,100.00
2022-11-02T07:22:57.777Z,100.00
2022-11-02T07:25:25.329Z,100.00
2022-11-02T07:27:51.731Z,100.00
2022-11-02T07:30:18.439Z,100.00
2022-11-02T07:32:46.097Z,100.00
2022-11-02T07:35:14.154Z,100.00
2022-11-02T07:37:41.571Z,100.00
2022-11-02T07:40:10.251Z,100.00
2022-11-02T07:42:36.679Z,100.00
2022-11-02T07:45:03.324Z,100.00
2022-11-02T07:47:30.831Z,100.00
2022-11-02T07:49:59.569Z,100.00
2022-11-02T07:52:25.976Z,100.00
2022-11-02T07:54:52.424Z,100.00
2022-11-02T07:57:18.855Z,100.00
2022-11-02T07:59:45.250Z,100.00
2022-11-02T08:02:13.571Z,98.50
2022-11-02T08:04:43.840Z,97.04
2022-11-02T08:07:11.523Z,95.19
2022-11-02T08:09:37.916Z,95.47
2022-11-02T08:12:04.443Z,96.88
2022-11-02T08:14:30.854Z,95.22
2022-11-02T08:16:57.246Z,93.06
2022-11-02T08:19:23.716Z,89.95
2022-11-02T08:21:50.272Z,88.68
2022-11-02T08:24:16.720Z,88.28
2022-11-02T08:26:45.327Z,86.66
2022-11-02T08:29:14.376Z,84.92
2022-11-02T08:31:40.772Z,85.07
2022-11-02T08:34:07.423Z,85.70
2022-11-02T08:36:36.655Z,85.11
2022-11-02T08:39:03.531Z,83.37
2022-11-02T08:41:29.963Z,84.03
2022-11-02T08:43:57.434Z,83.68
2022-11-02T08:46:23.955Z,82.58
2022-11-02T08:48:50.757Z,80.14
2022-11-02T08:51:17.154Z,81.05
2022-11-02T08:53:48.609Z,75.26
2022-11-02T08:56:17.784Z,74.69
2022-11-02T08:58:44.185Z,71.05
2022-11-02T09:01:10.665Z,67.97
2022-11-02T09:03:37.260Z,68.75
2022-11-02T09:06:03.851Z,66.42
2022-11-02T09:08:30.736Z,66.90
2022-11-02T09:11:02.642Z,67.91
2022-11-02T09:13:29.547Z,68.08
2022-11-02T09:15:58.003Z,68.52
2022-11-02T09:18:24.477Z,68.07
2022-11-02T09:20:51.527Z,68.02
2022-11-02T09:23:19.462Z,66.90
2022-11-02T09:25:46.181Z,64.87
2022-11-02T09:28:13.953Z,66.61
2022-11-02T09:30:40.434Z,68.23
2022-11-02T09:33:07.714Z,67.69
2022-11-02T09:35:36.899Z,66.95
2022-11-02T09:38:03.868Z,67.44
2022-11-02T09:40:36.663Z,66.84
2022-11-02T09:43:09.284Z,66.64
2022-11-02T09:45:42.222Z,67.26
2022-11-02T09:48:23.332Z,70.00
2022-11-02T09:51:19.843Z,67.63
2022-11-02T09:54:08.588Z,66.77
2022-11-02T09:56:37.520Z,67.40
2022-11-02T09:59:11.772Z,66.73
2022-11-02T10:01:57.762Z,67.98
2022-11-02T10:04:29.972Z,66.85
2022-11-02T10:07:10.335Z,65.59
2022-11-02T10:09:51.531Z,66.32
2022-11-02T10:12:42.634Z,65.14
2022-11-02T10:15:17.263Z,66.79
2022-11-02T10:17:46.194Z,67.32
2022-11-02T10:20:32.532Z,65.65
2022-11-02T10:23:03.665Z,64.87
2022-11-02T10:25:30.503Z,63.05
2022-11-02T10:28:05.035Z,62.16
2022-11-02T10:30:32.235Z,62.50
2022-11-02T10:32:59.317Z,60.13
2022-11-02T10:36:18.415Z,59.80
2022-11-02T10:39:13.634Z,60.34
2022-11-02T10:42:17.021Z,58.52
2022-11-02T10:44:56.238Z,60.02
2022-11-02T10:47:33.343Z,59.95
2022-11-02T10:50:14.022Z,59.46
2022-11-02T10:52:44.870Z,60.25
2022-11-02T10:55:21.356Z,58.60
2022-11-02T10:57:48.923Z,58.95
2022-11-02T11:00:34.709Z,59.33
2022-11-02T11:03:06.406Z,58.79
2022-11-02T11:05:34.913Z,57.27
2022-11-02T11:08:02.606Z,58.23
2022-11-02T11:10:36.523Z,57.88
2022-11-02T11:13:04.027Z,56.13
2022-11-02T11:15:49.743Z,55.81
2022-11-02T11:21:07.598Z,56.14
2022-11-02T11:23:34.135Z,56.83
2022-11-02T11:26:01.909Z,56.11
2022-11-02T11:28:55.039Z,55.24
2022-11-02T11:31:22.092Z,53.90
2022-11-02T11:33:51.363Z,52.66
2022-11-02T11:38:55.351Z,50.09
2022-11-02T11:41:22.631Z,48.94
2022-11-02T11:43:51.922Z,49.75
2022-11-02T11:46:18.469Z,49.22
2022-11-02T11:48:52.150Z,48.19
2022-11-02T11:51:26.284Z,46.81
2022-11-02T11:54:05.379Z,46.30
2022-11-02T11:56:32.483Z,44.86
2022-11-02T11:58:59.322Z,45.10
2022-11-02T12:01:25.790Z,44.02
2022-11-02T12:04:01.441Z,43.47
2022-11-02T12:06:45.750Z,42.95
2022-11-02T12:10:01.644Z,43.67
2022-11-02T12:12:42.750Z,41.46
2022-11-02T12:15:44.856Z,42.44
2022-11-02T12:18:48.478Z,42.79
2022-11-02T12:21:17.664Z,41.81
2022-11-02T12:24:12.465Z,42.13
2022-11-02T12:27:15.533Z,42.60
2022-11-02T12:29:53.597Z,42.22
2022-11-02T12:32:38.670Z,43.17
2022-11-02T12:35:28.261Z,43.66
2022-11-02T12:38:10.563Z,43.83
2022-11-02T12:41:07.302Z,42.93
2022-11-02T12:43:48.752Z,44.21
2022-11-02T12:46:17.977Z,45.49
2022-11-02T12:49:11.363Z,45.35
2022-11-02T12:51:40.633Z,45.50
2022-11-02T12:54:15.601Z,45.42
2022-11-02T12:56:51.288Z,45.07
2022-11-02T12:59:29.554Z,44.22
2022-11-02T13:02:10.369Z,44.58
2022-11-02T13:04:58.173Z,44.40
2022-11-02T13:07:42.796Z,44.63
2022-11-02T13:10:19.569Z,44.86
2022-11-02T13:12:50.255Z,45.98
2022-11-02T13:15:21.476Z,46.31
2022-11-02T13:17:54.515Z,46.26
2022-11-02T13:20:23.270Z,46.45
2022-11-02T13:22:58.028Z,46.88
2022-11-02T13:25:48.592Z,48.12
2022-11-02T13:28:25.244Z,48.27
2022-11-02T13:30:53.098Z,49.13
2022-11-02T13:33:26.695Z,49.67
2022-11-02T13:35:54.238Z,49.75
2022-11-02T13:39:03.196Z,50.87
2022-11-02T13:42:19.255Z,50.60
2022-11-02T13:45:10.202Z,49.76
2022-11-02T13:48:02.147Z,49.20
2022-11-02T13:50:33.239Z,50.13
2022-11-02T13:53:05.184Z,50.54
2022-11-02T13:56:00.992Z,51.82
2022-11-02T13:58:31.429Z,52.32
2022-11-02T14:01:07.921Z,52.09
2022-11-02T14:03:46.541Z,52.29
2022-11-02T14:06:15.677Z,51.81
2022-11-02T14:09:04.015Z,52.29
2022-11-02T14:11:44.914Z,52.60
2022-11-02T14:14:11.241Z,53.44
2022-11-02T14:16:50.375Z,52.30
2022-11-02T14:19:32.195Z,53.08
2022-11-02T14:21:58.820Z,53.55
2022-11-02T14:24:34.550Z,54.05
2022-11-02T14:27:02.327Z,54.28
2022-11-02T14:29:49.959Z,55.39
2022-11-02T14:32:23.878Z,54.89
2022-11-02T14:35:09.195Z,55.77
2022-11-02T14:38:04.765Z,56.29
2022-11-02T14:40:47.534Z,55.54
2022-11-02T14:43:43.349Z,56.98
2022-11-02T14:46:24.731Z,55.92
2022-11-02T14:48:55.086Z,56.57
2022-11-02T14:51:28.452Z,57.21
2022-11-02T14:54:14.033Z,57.59
2022-11-02T14:56:49.566Z,57.98
2022-11-02T14:59:28.999Z,58.66
2022-11-02T15:02:42.009Z,58.33
2022-11-02T15:05:22.854Z,59.32
2022-11-02T15:07:59.750Z,61.37
2022-11-02T15:10:32.196Z,58.96
2022-11-02T15:13:20.552Z,59.55
2022-11-02T15:15:56.082Z,59.39
2022-11-02T15:18:37.067Z,58.61
2022-11-02T15:21:17.695Z,59.50
2022-11-02T15:24:02.229Z,60.08
2022-11-02T15:26:48.631Z,61.67
2022-11-02T15:29:25.602Z,62.84
2022-11-02T15:31:55.913Z,63.90
2022-11-02T15:34:35.925Z,63.70
2022-11-02T15:37:03.465Z,63.48
2022-11-02T15:39:31.178Z,64.24
2022-11-02T15:42:06.585Z,65.41
2022-11-02T15:44:42.362Z,66.16
2022-11-02T15:47:23.966Z,66.40
2022-11-02T15:50:10.106Z,67.57
2022-11-02T15:53:22.432Z,67.93
2022-11-02T15:56:07.838Z,67.43
2022-11-02T15:58:56.030Z,68.29
2022-11-02T16:01:25.095Z,66.86
2022-11-02T16:03:58.839Z,67.70
2022-11-02T16:06:31.915Z,68.59
2022-11-02T16:09:03.449Z,69.33
2022-11-02T16:11:29.898Z,69.87
2022-11-02T16:14:18.310Z,67.94
2022-11-02T16:16:49.719Z,68.44
2022-11-02T16:19:20.708Z,68.28
2022-11-02T16:21:49.018Z,68.58
2022-11-02T16:24:16.594Z,69.55
2022-11-02T16:26:45.229Z,70.12
2022-11-02T16:29:15.846Z,70.36
2022-11-02T16:31:43.770Z,71.22
2022-11-02T16:34:33.883Z,71.26
2022-11-02T16:37:07.314Z,71.45
2022-11-02T16:39:39.709Z,72.49
2022-11-02T16:42:26.524Z,72.88
2022-11-02T16:44:59.277Z,73.12
2022-11-02T16:47:36.644Z,73.19
2022-11-02T16:50:04.802Z,73.50
2022-11-02T16:52:34.283Z,73.82
2022-11-02T16:55:04.321Z,74.40
2022-11-02T16:57:44.274Z,74.58
2022-11-02T17:00:20.157Z,74.42
2022-11-02T17:02:47.674Z,74.71
2022-11-02T17:05:17.998Z,75.08
2022-11-02T17:07:57.460Z,75.70
2022-11-02T17:10:26.742Z,76.08
2022-11-02T17:12:54.359Z,75.87
2022-11-02T17:15:23.380Z,77.10
2022-11-02T17:17:50.523Z,77.75
2022-11-02T17:20:20.935Z,78.47
2022-11-02T17:22:55.413Z,79.84
2022-11-02T17:25:23.362Z,80.53
2022-11-02T17:27:51.332Z,79.96
2022-11-02T17:30:29.759Z,80.24
2022-11-02T17:32:58.067Z,80.42
2022-11-02T17:35:27.422Z,81.59
2022-11-02T17:37:54.306Z,80.47
2022-11-02T17:40:21.832Z,81.71
2022-11-02T17:43:00.883Z,81.76
2022-11-02T17:45:37.447Z,82.38
2022-11-02T17:48:06.251Z,81.80
2022-11-02T17:50:37.744Z,83.59
2022-11-02T17:53:05.992Z,82.91
2022-11-02T17:55:34.638Z,82.59
2022-11-02T17:58:01.308Z,81.83
2022-11-02T18:00:28.765Z,82.32
2022-11-02T18:02:58.378Z,83.00
2022-11-02T18:05:35.232Z,84.46
2022-11-02T18:08:03.033Z,82.94
2022-11-02T18:10:51.308Z,82.34
2022-11-02T18:13:20.362Z,83.25
2022-11-02T18:15:47.530Z,83.22
2022-11-02T18:18:14.082Z,84.23
2022-11-02T18:20:41.996Z,82.59
2022-11-02T18:23:15.799Z,83.63
2022-11-02T18:25:42.647Z,83.72
2022-11-02T18:28:09.244Z,84.76
2022-11-02T18:30:35.867Z,85.12
2022-11-02T18:33:02.854Z,85.63
2022-11-02T18:35:29.670Z,85.68
2022-11-02T18:37:56.605Z,85.99
2022-11-02T18:40:23.032Z,85.30
2022-11-02T18:42:49.871Z,86.21
2022-11-02T18:45:16.536Z,86.07
2022-11-02T18:47:43.443Z,86.19
2022-11-02T18:50:12.295Z,85.87
2022-11-02T18:52:38.831Z,85.76
2022-11-02T18:55:05.905Z,86.23
2022-11-02T18:57:32.823Z,87.01
2022-11-02T18:59:59.742Z,88.42
2022-11-02T19:02:26.445Z,88.19
2022-11-02T19:04:52.938Z,89.00
2022-11-02T19:07:38.248Z,87.84
2022-11-02T19:10:05.137Z,87.32
2022-11-02T19:12:31.848Z,88.20
2022-11-02T19:14:58.518Z,87.95
2022-11-02T19:17:26.867Z,89.49
2022-11-02T19:19:53.826Z,89.37
2022-11-02T19:22:22.735Z,90.75
2022-11-02T19:24:49.735Z,89.69
2022-11-02T19:27:25.426Z,89.19
2022-11-02T19:29:52.473Z,89.20
2022-11-02T19:32:19.582Z,88.56
2022-11-02T19:34:46.376Z,88.25
2022-11-02T19:37:13.071Z,87.95
2022-11-02T19:39:39.746Z,88.17
2022-11-02T19:42:07.435Z,88.54
2022-11-02T19:44:39.587Z,88.49
2022-11-02T19:47:08.640Z,89.13
2022-11-02T19:49:35.031Z,89.24
2022-11-02T19:52:01.456Z,89.21
2022-11-02T19:54:27.871Z,88.68
2022-11-02T19:56:54.323Z,88.78
2022-11-02T19:59:20.773Z,89.47
2022-11-02T20:01:48.367Z,89.73
2022-11-02T20:04:14.869Z,89.62
2022-11-02T20:06:43.170Z,90.54
2022-11-02T20:09:18.811Z,90.77
2022-11-02T20:11:46.884Z,90.95
2022-11-02T20:14:15.049Z,90.98
2022-11-02T20:16:42.197Z,91.44
2022-11-02T20:19:09.244Z,91.65
2022-11-02T20:21:41.547Z,92.80
2022-11-02T20:24:10.165Z,91.21
2022-11-02T20:26:38.752Z,91.33
2022-11-02T20:29:06.711Z,92.11
2022-11-02T20:31:35.939Z,92.42
2022-11-02T20:34:04.466Z,92.40
2022-11-02T20:36:31.156Z,92.27
2022-11-02T20:38:58.049Z,92.15
2022-11-02T20:41:26.105Z,93.07
2022-11-02T20:43:55.465Z,93.36
2022-11-02T20:46:37.663Z,93.29
2022-11-02T20:49:19.920Z,94.14
2022-11-02T20:51:51.848Z,92.77
2022-11-02T20:54:21.863Z,93.19
2022-11-02T20:56:49.582Z,93.73
2022-11-02T20:59:16.171Z,93.09
2022-11-02T21:01:42.815Z,93.36
2022-11-02T21:04:09.389Z,92.46
2022-11-02T21:06:35.799Z,92.94
2022-11-02T21:09:08.984Z,92.34
2022-11-02T21:11:55.833Z,91.56
2022-11-02T21:14:23.269Z,91.53
2022-11-02T21:16:49.660Z,92.53
2022-11-02T21:19:16.108Z,93.04
2022-11-02T21:21:42.495Z,92.84
2022-11-02T21:24:09.868Z,92.23
2022-11-02T21:26:36.570Z,92.46
2022-11-02T21:29:03.327Z,92.37
2022-11-02T21:31:29.740Z,93.09
2022-11-02T21:33:56.151Z,92.99
2022-11-02T21:36:22.559Z,93.65
2022-11-02T21:38:48.996Z,92.36
2022-11-02T21:41:19.583Z,92.67
2022-11-02T21:43:46.041Z,94.10
2022-11-02T21:46:12.530Z,94.16
2022-11-02T21:48:39.232Z,93.87
2022-11-02T21:51:18.612Z,93.52
2022-11-02T21:53:46.555Z,95.02
2022-11-02T21:56:15.348Z,94.78
2022-11-02T21:58:44.876Z,94.56
2022-11-02T22:01:37.311Z,95.07
2022-11-02T22:04:04.672Z,95.91
2022-11-02T22:06:32.071Z,95.96
2022-11-02T22:08:59.658Z,96.16
2022-11-02T22:11:29.916Z,95.09
2022-11-02T22:13:58.503Z,95.58
2022-11-02T22:16:31.641Z,95.16
2022-11-02T22:19:00.062Z,95.34
2022-11-02T22:21:29.119Z,95.72
2022-11-02T22:23:56.605Z,94.80
2022-11-02T22:26:25.624Z,94.63
2022-11-02T22:28:53.100Z,94.95
2022-11-02T22:31:22.509Z,94.63
2022-11-02T22:33:51.777Z,94.23
2022-11-02T22:36:21.341Z,93.52
2022-11-02T22:38:48.351Z,93.00
2022-11-02T22:41:15.857Z,93.50
2022-11-02T22:43:42.995Z,93.16
2022-11-02T22:46:10.141Z,93.03
2022-11-02T22:48:36.781Z,91.86
2022-11-02T22:51:05.979Z,92.34
2022-11-02T22:53:33.225Z,92.29
2022-11-02T22:56:02.464Z,93.85
2022-11-02T22:58:31.251Z,93.41
2022-11-02T23:00:57.772Z,93.44
2022-11-02T23:03:24.427Z,94.17
2022-11-02T23:05:50.847Z,94.26
2022-11-02T23:08:18.256Z,94.04
2022-11-02T23:11:03.842Z,94.83
2022-11-02T23:13:30.255Z,95.29
2022-11-02T23:16:22.390Z,95.20
2022-11-02T23:19:10.558Z,95.88
2022-11-02T23:21:38.859Z,95.82
2022-11-02T23:24:24.155Z,95.20
2022-11-02T23:26:50.661Z,95.29
2022-11-02T23:29:35.859Z,95.60
2022-11-02T23:32:20.845Z,96.58
2022-11-02T23:35:05.642Z,95.70
2022-11-02T23:37:32.077Z,96.15
2022-11-02T23:39:58.510Z,96.29
2022-11-02T23:42:24.905Z,95.68
2022-11-02T23:44:51.541Z,96.08
2022-11-02T23:47:18.003Z,96.66
2022-11-02T23:49:44.405Z,96.47
2022-11-02T23:52:33.119Z,96.94
2022-11-02T23:55:18.045Z,97.51
2022-11-02T23:57:44.525Z,97.66
